Time;durP1;ratioP1;P1;durP2;ratioP2;P2;SDS_P1;SDS_P2;PMS_P1;PMS_P2;Temp;Humidity;BMP_temperature;BMP_pressure;BME280_temperature;BME280_humidity;BME280_pressure;Samples;Min_cycle;Max_cycle;Signal;HPM_P1;HPM_P2
2022/09/06 00:00:08;;;;;;;;;7.00;5.33;;;;;21.78;63.57;101039.66;5095029;27;45529;-69
2022/09/06 00:02:35;;;;;;;;;5.33;4.67;;;;;21.62;63.44;101031.44;5094650;27;45338;-72
2022/09/06 00:05:01;;;;;;;;;8.00;8.00;;;;;21.66;63.64;101041.03;5075838;27;45269;-71
2022/09/06 00:07:27;;;;;;;;;5.33;4.00;;;;;21.54;63.66;101026.38;5094977;27;45463;-71
2022/09/06 00:09:53;;;;;;;;;5.00;5.00;;;;;21.49;63.63;101033.69;5094654;27;45521;-69
2022/09/06 00:12:19;;;;;;;;;5.00;5.00;;;;;21.55;63.71;101033.47;5075736;27;45413;-70
2022/09/06 00:14:44;;;;;;;;;5.67;5.67;;;;;21.58;63.75;101036.00;5075704;27;45917;-71
2022/09/06 00:17:10;;;;;;;;;5.33;5.33;;;;;21.54;63.77;101018.38;5094019;27;45844;-69
2022/09/06 00:19:36;;;;;;;;;5.00;5.00;;;;;21.48;64.07;101029.31;5097283;27;45450;-70
2022/09/06 00:22:01;;;;;;;;;8.00;4.67;;;;;21.47;64.16;101050.66;5098405;27;45671;-68
2022/09/06 00:24:27;;;;;;;;;8.00;6.00;;;;;21.42;63.95;101023.34;5075731;27;45324;-72
2022/09/06 00:26:53;;;;;;;;;5.67;4.33;;;;;21.40;64.28;101044.69;5094444;27;45347;-70
2022/09/06 00:29:18;;;;;;;;;5.00;5.00;;;;;21.47;64.52;101046.19;5075630;27;45709;-69
2022/09/06 00:31:44;;;;;;;;;6.00;6.00;;;;;21.57;64.06;101049.41;5087258;27;46251;-72
2022/09/06 00:34:10;;;;;;;;;4.00;4.00;;;;;21.56;64.04;101056.50;5097564;27;45426;-72
2022/09/06 00:36:36;;;;;;;;;5.00;4.00;;;;;21.54;64.00;101046.84;5086634;27;45423;-73
2022/09/06 00:39:01;;;;;;;;;7.00;5.67;;;;;21.52;64.26;101054.03;5097034;27;45384;-69
2022/09/06 00:41:27;;;;;;;;;4.33;4.33;;;;;21.22;64.63;101013.41;5095404;27;46325;-76
2022/09/06 00:43:53;;;;;;;;;5.00;5.00;;;;;21.29;64.81;101046.91;5076962;27;45659;-69
2022/09/06 00:46:26;;;;;;;;;6.67;5.33;;;;;21.16;65.04;101054.47;5077438;27;45488;-75
2022/09/06 00:49:06;;;;;;;;;4.00;4.00;;;;;21.22;64.81;101056.03;5092594;27;45463;-70
2022/09/06 00:51:34;;;;;;;;;4.00;4.00;;;;;21.23;65.22;101047.97;5091988;27;45464;-68
2022/09/06 00:54:05;;;;;;;;;4.00;4.00;;;;;21.29;64.81;101045.09;5075016;27;45434;-69
2022/09/06 00:56:34;;;;;;;;;6.33;5.67;;;;;21.21;65.02;101038.31;5092791;27;45421;-70
2022/09/06 00:59:00;;;;;;;;;5.33;5.33;;;;;21.22;65.03;101032.06;5093280;27;45493;-71
2022/09/06 01:01:26;;;;;;;;;4.67;4.67;;;;;21.23;65.31;101044.44;5095961;27;46475;-69
2022/09/06 01:03:52;;;;;;;;;6.67;5.67;;;;;21.29;65.01;101038.91;5096312;27;46043;-68
2022/09/06 01:06:27;;;;;;;;;5.33;5.00;;;;;21.42;64.92;101048.19;5092488;27;45476;-73
2022/09/06 01:09:31;;;;;;;;;5.33;3.00;;;;;21.50;65.13;101045.25;5093231;27;46564;-69
2022/09/06 01:12:06;;;;;;;;;6.00;3.00;;;;;21.56;64.31;101042.31;5078357;27;46499;-70
2022/09/06 01:14:46;;;;;;;;;3.67;3.67;;;;;21.61;64.71;101048.34;5080419;27;45546;-72
2022/09/06 01:17:33;;;;;;;;;7.33;5.00;;;;;21.67;64.01;101055.25;5077924;27;45389;-68
2022/09/06 01:20:20;;;;;;;;;5.33;5.00;;;;;21.62;64.46;101044.75;5097109;27;45417;-71
2022/09/06 01:22:59;;;;;;;;;5.33;5.33;;;;;21.72;63.95;101055.94;5058828;27;47324;-72
2022/09/06 01:25:45;;;;;;;;;5.67;5.67;;;;;21.75;63.91;101053.13;5076495;27;45425;-69
2022/09/06 01:28:36;;;;;;;;;4.33;4.00;;;;;21.73;64.12;101052.31;5076601;27;45506;-69
2022/09/06 01:31:10;;;;;;;;;6.33;6.33;;;;;21.73;64.41;101049.66;5062428;27;45482;-73
2022/09/06 01:33:55;;;;;;;;;7.33;5.00;;;;;21.64;64.42;101047.34;5080644;27;46266;-70
2022/09/06 01:36:31;;;;;;;;;5.67;5.67;;;;;21.51;64.69;101038.97;5077821;27;45885;-69
2022/09/06 01:38:56;;;;;;;;;6.00;6.00;;;;;21.39;64.66;101026.97;5075721;27;45486;-69
2022/09/06 01:41:22;;;;;;;;;5.67;4.67;;;;;21.44;64.53;101035.66;5069651;27;45356;-68
2022/09/06 01:43:51;;;;;;;;;7.33;5.00;;;;;21.38;65.14;101036.75;5077129;27;46996;-69
2022/09/06 01:46:43;;;;;;;;;6.00;6.00;;;;;21.44;65.33;101045.47;5097383;27;45338;-71
2022/09/06 01:49:26;;;;;;;;;4.00;4.00;;;;;21.41;65.06;101045.59;5097200;27;45476;-68
2022/09/06 01:52:14;;;;;;;;;6.00;6.00;;;;;21.37;65.01;101055.44;5078412;27;45410;-69
2022/09/06 01:54:59;;;;;;;;;6.33;4.67;;;;;21.29;65.03;101045.09;5088263;27;45449;-69
2022/09/06 01:57:57;;;;;;;;;6.33;6.33;;;;;21.20;65.38;101050.75;5077826;27;45488;-72
2022/09/06 02:00:23;;;;;;;;;10.33;7.00;;;;;21.18;65.87;101047.28;5072165;27;45830;-73
2022/09/06 02:03:12;;;;;;;;;8.00;7.00;;;;;21.08;66.34;101045.91;5068333;27;45362;-73
2022/09/06 02:05:42;;;;;;;;;7.67;7.00;;;;;20.96;66.58;101040.09;5091593;27;45476;-69
2022/09/06 02:08:21;;;;;;;;;9.00;7.00;;;;;20.88;67.06;101030.63;5096869;27;45457;-69
2022/09/06 02:11:04;;;;;;;;;7.67;7.67;;;;;20.78;67.17;101040.75;5096356;27;45472;-75
2022/09/06 02:13:48;;;;;;;;;8.67;7.00;;;;;20.77;67.37;101040.81;5096736;27;45489;-74
2022/09/06 02:16:22;;;;;;;;;7.00;7.00;;;;;20.71;67.71;101028.56;5095603;27;46677;-75
2022/09/06 02:18:52;;;;;;;;;6.00;6.00;;;;;20.74;67.52;101016.03;5096035;27;45848;-73
2022/09/06 02:21:24;;;;;;;;;9.67;8.67;;;;;20.64;67.97;101022.59;5098807;27;45326;-75
2022/09/06 02:23:53;;;;;;;;;8.00;7.00;;;;;20.54;68.55;101022.00;5095906;27;45494;-70
2022/09/06 02:26:24;;;;;;;;;8.00;6.00;;;;;20.52;68.23;101029.22;5095230;27;45459;-70
2022/09/06 02:28:51;;;;;;;;;8.33;8.00;;;;;20.60;68.18;101036.94;5077251;27;45505;-70
2022/09/06 02:31:54;;;;;;;;;7.00;7.00;;;;;20.53;67.99;101036.25;5080228;27;45506;-71
2022/09/06 02:34:20;;;;;;;;;7.00;6.67;;;;;20.46;68.27;101024.09;5098337;27;45320;-70
2022/09/06 02:36:46;;;;;;;;;8.00;7.67;;;;;20.62;67.98;101035.09;5095395;27;45471;-67
2022/09/06 02:39:12;;;;;;;;;8.33;8.33;;;;;20.62;67.92;101027.13;5069217;28;45730;-71
2022/09/06 02:41:41;;;;;;;;;8.33;7.67;;;;;20.59;68.23;101021.03;5092540;27;45468;-69
2022/09/06 02:44:07;;;;;;;;;9.33;8.00;;;;;20.60;67.93;101018.31;5081589;27;45469;-72
2022/09/06 02:46:32;;;;;;;;;9.00;6.33;;;;;20.62;68.22;101019.13;5075320;27;45476;-73
2022/09/06 02:48:58;;;;;;;;;8.00;8.00;;;;;20.56;68.62;101011.34;5072423;28;45307;-74
2022/09/06 02:51:24;;;;;;;;;12.00;8.00;;;;;20.47;68.77;101004.53;5074372;27;45308;-68
2022/09/06 02:53:50;;;;;;;;;9.33;8.33;;;;;20.46;68.81;101021.44;5056232;27;45458;-68
2022/09/06 02:56:16;;;;;;;;;7.67;6.67;;;;;20.60;68.34;101036.09;5073981;27;46555;-72
2022/09/06 02:58:41;;;;;;;;;9.33;8.00;;;;;20.57;68.41;101025.53;5056055;27;45811;-69
2022/09/06 03:01:07;;;;;;;;;10.67;8.00;;;;;20.48;68.73;101016.91;5072575;27;45526;-68
2022/09/06 03:03:33;;;;;;;;;8.33;8.33;;;;;20.46;69.03;101002.81;5092301;27;45290;-71
2022/09/06 03:05:58;;;;;;;;;12.33;7.67;;;;;20.45;68.81;101026.78;5057359;28;47657;-69
2022/09/06 03:08:25;;;;;;;;;9.33;7.33;;;;;20.48;68.86;101037.34;5086795;27;45476;-69
2022/09/06 03:10:52;;;;;;;;;10.67;7.33;;;;;20.46;68.90;101036.53;5089450;27;46693;-69
2022/09/06 03:13:18;;;;;;;;;10.00;8.33;;;;;20.54;68.89;101031.78;5087610;27;45768;-69
2022/09/06 03:15:55;;;;;;;;;7.67;7.67;;;;;20.52;69.10;101025.66;5089564;27;45643;-69
2022/09/06 03:18:24;;;;;;;;;7.00;7.00;;;;;20.57;68.69;101029.06;5084374;27;45645;-69
2022/09/06 03:20:51;;;;;;;;;12.00;7.00;;;;;20.53;68.83;101024.75;5081090;27;45369;-68
2022/09/06 03:23:17;;;;;;;;;6.00;6.00;;;;;20.60;68.69;101038.75;5088463;27;45964;-73
2022/09/06 03:25:43;;;;;;;;;5.67;5.67;;;;;20.63;68.50;101039.50;5076611;27;46294;-70
2022/09/06 03:28:09;;;;;;;;;7.00;6.33;;;;;20.65;68.33;101032.34;5065833;27;45547;-70
2022/09/06 07:14:05;;;;;;;;;5.33;5.33;;;;;21.69;61.94;101093.34;5105311;27;45539;-67
2022/09/06 07:16:31;;;;;;;;;9.00;7.67;;;;;21.72;62.70;101088.78;5069913;27;45390;-72
2022/09/06 07:18:56;;;;;;;;;6.33;5.00;;;;;22.01;62.34;101095.63;5068824;28;45897;-68
2022/09/06 07:21:25;;;;;;;;;7.00;7.00;;;;;22.29;61.25;101093.69;5074470;27;45468;-69
2022/09/06 07:23:55;;;;;;;;;8.67;6.33;;;;;22.65;60.00;101096.59;5058477;27;46711;-64
2022/09/06 07:26:23;;;;;;;;;9.33;7.67;;;;;22.94;58.79;101102.50;5056589;28;45827;-68
2022/09/06 07:28:57;;;;;;;;;6.33;6.33;;;;;23.18;58.20;101103.25;5064287;28;45481;-69
2022/09/06 07:31:23;;;;;;;;;8.67;8.67;;;;;23.19;57.33;101094.31;5072401;27;45581;-69
2022/09/06 07:33:49;;;;;;;;;6.33;6.33;;;;;23.29;57.55;101087.59;5074016;27;45741;-67
2022/09/06 07:36:15;;;;;;;;;6.00;6.00;;;;;23.61;56.54;101082.56;5071727;27;45353;-71
2022/09/06 07:38:41;;;;;;;;;7.33;7.33;;;;;23.80;55.83;101083.47;5069945;27;45465;-71
2022/09/06 07:41:09;;;;;;;;;7.00;7.00;;;;;23.94;55.19;101085.47;5070289;27;45456;-74
2022/09/06 07:43:35;;;;;;;;;8.33;7.33;;;;;24.06;54.99;101092.03;5069378;28;46558;-67
2022/09/06 07:46:05;;;;;;;;;7.00;6.00;;;;;24.02;55.35;101088.66;5069619;27;45429;-73
2022/09/06 07:48:32;;;;;;;;;7.33;7.33;;;;;24.00;55.26;101081.66;5069763;28;45475;-70
2022/09/06 07:51:18;;;;;;;;;6.00;6.00;;;;;24.23;54.90;101112.66;5069803;27;45554;-70
2022/09/06 07:53:49;;;;;;;;;6.00;6.00;;;;;24.40;54.48;101104.63;5069013;27;45523;-72
2022/09/06 07:56:15;;;;;;;;;7.67;7.67;;;;;24.60;53.38;101110.81;5069429;27;45685;-73
2022/09/06 07:58:41;;;;;;;;;7.33;6.00;;;;;24.60;53.87;101124.22;5069829;27;45532;-67
2022/09/06 08:01:33;;;;;;;;;13.67;7.33;;;;;24.57;53.56;101105.63;5069859;27;45532;-68
2022/09/06 08:04:07;;;;;;;;;6.67;6.67;;;;;24.82;53.21;101121.28;5093267;27;46728;-68
2022/09/06 08:06:39;;;;;;;;;9.67;7.00;;;;;24.93;52.75;101118.94;5069657;27;45492;-67
2022/09/06 08:09:08;;;;;;;;;8.67;8.00;;;;;24.82;52.59;101114.16;5074663;27;45611;-68
2022/09/06 08:11:35;;;;;;;;;8.00;5.25;;;;;24.89;53.41;101115.56;5074198;27;45492;-67
2022/09/06 08:14:04;;;;;;;;;7.50;7.00;;;;;25.05;52.65;101109.38;5071296;27;45522;-69
2022/09/06 08:16:30;;;;;;;;;7.33;7.00;;;;;25.17;52.26;101092.66;5069654;28;45553;-71
2022/09/06 08:18:58;;;;;;;;;8.33;7.33;;;;;25.31;51.54;101102.66;5069979;27;45601;-65
2022/09/06 08:21:26;;;;;;;;;10.50;8.50;;;;;25.35;51.79;101098.88;5068570;28;45835;-65
2022/09/06 08:23:54;;;;;;;;;8.00;8.00;;;;;25.43;51.33;101096.63;5067393;28;45603;-68
2022/09/06 08:26:22;;;;;;;;;8.25;8.25;;;;;25.42;50.30;101107.47;5055136;28;45482;-69
2022/09/06 08:28:56;;;;;;;;;7.00;6.33;;;;;25.34;50.92;101105.19;5055478;28;45469;-67
2022/09/06 08:31:22;;;;;;;;;8.00;7.33;;;;;25.42;50.29;101107.47;5074387;27;45880;-67
2022/09/06 08:33:47;;;;;;;;;6.25;6.25;;;;;25.36;51.44;101098.78;5059793;28;45455;-69
2022/09/06 08:36:14;;;;;;;;;8.67;7.00;;;;;25.50;50.46;101094.50;5054304;28;45518;-66
2022/09/06 08:38:40;;;;;;;;;5.75;5.00;;;;;25.67;50.89;101094.41;5055896;28;45406;-69
2022/09/06 08:41:31;;;;;;;;;6.00;6.00;;;;;25.67;49.50;101082.84;5056213;28;45682;-68
2022/09/06 08:44:01;;;;;;;;;6.75;6.75;;;;;25.65;48.90;101090.97;5053955;28;45510;-70
2022/09/06 08:46:39;;;;;;;;;5.75;5.00;;;;;25.78;49.23;101086.66;5055072;28;45390;-73
2022/09/06 08:49:06;;;;;;;;;6.00;5.25;;;;;25.75;47.81;101069.88;5055586;28;45693;-71
2022/09/06 08:51:49;;;;;;;;;5.75;5.50;;;;;25.87;47.40;101084.44;5055846;28;45504;-68
2022/09/06 08:54:45;;;;;;;;;7.00;4.00;;;;;25.85;46.19;101083.63;5070973;27;45918;-72
2022/09/06 08:57:39;;;;;;;;;2.75;2.75;;;;;25.87;48.00;101082.63;5056965;28;45706;-69
2022/09/06 09:00:10;;;;;;;;;4.50;4.00;;;;;25.99;47.22;101064.97;5057677;28;45406;-76
2022/09/06 09:02:50;;;;;;;;;4.25;4.25;;;;;25.91;46.54;101061.81;5056600;28;45351;-70
2022/09/06 09:05:27;;;;;;;;;6.75;6.75;;;;;25.82;46.78;101060.53;5056777;28;46619;-75
2022/09/06 09:08:02;;;;;;;;;5.00;5.00;;;;;25.77;46.61;101065.28;5055516;28;45309;-70
2022/09/06 09:10:31;;;;;;;;;5.00;5.00;;;;;25.75;47.43;101067.19;5056834;28;45488;-71
2022/09/06 09:13:02;;;;;;;;;4.50;4.50;;;;;25.78;46.69;101069.69;5054423;28;45517;-73
2022/09/06 09:15:28;;;;;;;;;3.00;3.00;;;;;25.67;46.77;101074.78;5060369;28;45531;-74
2022/09/06 09:17:54;;;;;;;;;5.00;5.00;;;;;25.86;46.59;101104.13;5057172;28;45311;-73
2022/09/06 09:20:21;;;;;;;;;3.00;3.00;;;;;26.06;45.94;101111.97;5057257;28;45479;-74
2022/09/06 09:22:47;;;;;;;;;3.00;3.00;;;;;26.30;45.98;101103.47;5055142;27;45437;-75
2022/09/06 09:25:20;;;;;;;;;1.50;1.00;;;;;26.46;45.31;101096.25;5056152;27;46021;-67
2022/09/06 09:27:56;;;;;;;;;5.25;3.25;;;;;26.70;44.03;101110.06;5055894;28;45446;-70
2022/09/06 09:30:22;;;;;;;;;4.50;3.00;;;;;26.80;43.86;101107.69;5055009;28;45469;-71
2022/09/06 09:32:48;;;;;;;;;5.25;3.25;;;;;26.94;43.27;101113.09;5057110;28;45434;-66
2022/09/06 09:35:32;;;;;;;;;4.75;3.00;;;;;27.22;43.01;101106.91;5055363;28;45530;-70
2022/09/06 09:38:09;;;;;;;;;5.00;4.50;;;;;27.49;43.21;101108.84;5055108;28;45346;-71
2022/09/06 09:40:52;;;;;;;;;6.75;5.00;;;;;27.76;42.51;101099.97;5052774;28;46472;-71
2022/09/06 09:43:23;;;;;;;;;5.75;5.00;;;;;27.66;41.92;101107.75;5062288;27;45687;-67
2022/09/06 09:46:12;;;;;;;;;7.00;5.50;;;;;27.36;43.42;101116.81;5053890;28;45482;-78
2022/09/06 09:48:40;;;;;;;;;5.00;4.25;;;;;27.20;43.29;101105.28;5058619;28;45556;-67
2022/09/06 09:51:23;;;;;;;;;4.00;4.00;;;;;27.07;43.75;101107.81;5056735;28;45604;-82
2022/09/06 09:54:03;;;;;;;;;4.00;4.00;;;;;26.92;44.36;101098.88;5055139;28;45439;-66
2022/09/06 09:56:47;;;;;;;;;3.00;3.00;;;;;26.74;43.78;101092.81;5055012;28;46417;-70
2022/09/06 09:59:25;;;;;;;;;4.00;4.00;;;;;26.52;44.54;101092.31;5069712;27;45607;-76
2022/09/06 10:01:55;;;;;;;;;4.25;4.25;;;;;26.36;45.10;101095.91;5052809;27;45405;-68
2022/09/06 10:04:34;;;;;;;;;6.00;6.00;;;;;26.11;46.31;101099.13;5054091;28;45607;-67
2022/09/06 10:07:12;;;;;;;;;7.75;6.00;;;;;25.86;46.51;101115.75;5054270;28;46624;-68
2022/09/06 10:09:42;;;;;;;;;6.75;6.00;;;;;25.67;47.45;101121.25;5073561;27;45875;-68
2022/09/06 10:12:15;;;;;;;;;7.00;6.50;;;;;25.52;48.20;101127.47;5053242;28;45467;-68
2022/09/06 10:14:44;;;;;;;;;7.00;6.00;;;;;25.48;48.17;101123.22;5055968;28;45398;-67
2022/09/06 10:17:32;;;;;;;;;6.00;6.00;;;;;25.54;48.71;101126.44;5063393;28;46752;-73
2022/09/06 10:20:04;;;;;;;;;7.50;7.00;;;;;25.58;49.01;101125.31;5083906;27;45384;-67
2022/09/06 10:22:35;;;;;;;;;7.00;7.00;;;;;25.68;48.91;101127.50;5069116;28;44736;-67
2022/09/06 10:25:24;;;;;;;;;9.25;7.00;;;;;25.74;49.26;101127.16;5065992;28;44764;-66
2022/09/06 10:28:28;;;;;;;;;5.50;5.50;;;;;25.95;48.65;101122.44;5069295;28;47980;-69
2022/09/06 10:30:56;;;;;;;;;9.00;7.67;;;;;26.10;48.60;101131.44;5054666;28;45445;-67
2022/09/06 10:34:09;;;;;;;;;8.50;7.50;;;;;25.93;49.00;101124.34;5052680;28;45516;-69
2022/09/06 10:36:38;;;;;;;;;7.00;7.00;;;;;25.74;49.29;101108.38;5044773;28;45612;-74
2022/09/06 10:39:22;;;;;;;;;6.00;6.00;;;;;25.66;49.54;101100.75;5053058;28;46775;-67
2022/09/06 10:41:48;;;;;;;;;5.00;5.00;;;;;25.66;49.57;101091.84;5055934;28;45340;-67
2022/09/06 10:44:51;;;;;;;;;7.25;6.00;;;;;25.80;49.47;101079.38;5059899;28;45449;-77
2022/09/06 10:47:17;;;;;;;;;8.00;7.00;;;;;25.88;49.05;101067.38;5016295;28;45416;-74
2022/09/06 10:49:55;;;;;;;;;5.50;5.50;;;;;25.71;48.66;101045.03;5055807;28;46733;-77
2022/09/06 10:52:28;;;;;;;;;7.25;6.00;;;;;25.52;49.08;101042.50;5053438;28;45499;-71
2022/09/06 10:55:03;;;;;;;;;6.00;6.00;;;;;25.33;49.45;101026.56;5053970;28;45580;-69
2022/09/06 10:57:44;;;;;;;;;6.00;6.00;;;;;25.24;49.42;101021.72;5052195;28;45560;-71
2022/09/06 11:00:12;;;;;;;;;7.75;6.00;;;;;25.26;49.83;101035.03;5053437;28;46289;-67
2022/09/06 11:03:02;;;;;;;;;7.00;7.00;;;;;25.22;49.55;101020.06;5053155;28;45843;-66
2022/09/06 11:05:36;;;;;;;;;6.75;6.75;;;;;25.21;49.90;101035.28;5051550;27;45449;-72
2022/09/06 11:08:20;;;;;;;;;6.50;5.00;;;;;25.36;49.30;101033.56;5051606;27;45573;-72
2022/09/06 11:10:49;;;;;;;;;4.00;4.00;;;;;25.48;48.89;101016.81;5050752;28;46073;-72
2022/09/06 11:13:17;;;;;;;;;4.75;4.25;;;;;25.68;48.04;101034.47;5056058;28;45416;-68
2022/09/06 11:15:50;;;;;;;;;5.00;3.75;;;;;25.76;47.60;101032.22;5053911;28;45431;-68
2022/09/06 11:18:37;;;;;;;;;5.50;5.50;;;;;25.80;47.95;101025.72;5053857;28;45378;-68
2022/09/06 11:21:17;;;;;;;;;5.00;5.00;;;;;25.80;47.80;101024.88;5056947;28;45717;-73
2022/09/06 11:23:47;;;;;;;;;9.00;6.00;;;;;25.73;48.06;101026.16;5054060;28;45524;-67
2022/09/06 11:26:29;;;;;;;;;10.25;6.75;;;;;25.80;47.13;101027.53;5070370;27;45518;-67
2022/09/06 11:28:58;;;;;;;;;8.50;6.00;;;;;25.80;46.87;101017.66;5052381;28;45350;-69
2022/09/06 11:31:27;;;;;;;;;5.00;5.00;;;;;25.78;46.28;100989.22;5053734;27;45472;-69
2022/09/06 11:34:10;;;;;;;;;4.00;4.00;;;;;26.04;44.86;100985.03;5053278;28;45576;-74
2022/09/06 11:36:49;;;;;;;;;4.50;3.25;;;;;26.56;45.30;100994.50;5055124;27;45380;-76
2022/09/06 11:39:25;;;;;;;;;4.00;4.00;;;;;27.14;44.14;100990.88;5054130;28;45714;-71
2022/09/06 11:41:51;;;;;;;;;5.75;5.75;;;;;27.34;44.08;100986.09;5052373;28;46182;-69
2022/09/06 11:44:49;;;;;;;;;5.00;5.00;;;;;27.68;43.51;100982.91;5052708;28;45412;-78
2022/09/06 11:47:53;;;;;;;;;5.00;5.00;;;;;28.04;43.41;100994.06;5039343;28;45801;-69
2022/09/06 11:50:19;;;;;;;;;4.00;4.00;;;;;28.58;42.85;100993.97;5056491;28;45342;-72
2022/09/06 11:53:07;;;;;;;;;6.00;4.50;;;;;28.86;41.53;100997.44;5068953;27;45421;-70
2022/09/06 11:55:40;;;;;;;;;5.25;4.25;;;;;28.87;40.69;100981.13;5053746;28;45464;-75
2022/09/06 11:58:15;;;;;;;;;5.25;5.25;;;;;29.42;39.96;100988.94;5066164;27;45448;-66
2022/09/06 12:01:15;;;;;;;;;4.75;4.75;;;;;30.92;38.39;100984.75;5059093;28;45398;-67
2022/09/06 12:03:51;;;;;;;;;5.00;5.00;;;;;32.81;35.24;100974.41;5049636;28;45484;-68
2022/09/06 12:06:30;;;;;;;;;4.00;4.00;;;;;34.39;33.11;100979.88;5056803;28;45524;-68
2022/09/06 12:09:05;;;;;;;;;3.00;3.00;;;;;35.50;31.60;100962.84;5052461;28;45958;-71
2022/09/06 12:11:45;;;;;;;;;4.00;4.00;;;;;36.40;29.41;100970.03;5058313;28;45436;-73
2022/09/06 12:14:34;;;;;;;;;3.60;3.60;;;;;36.98;29.33;100975.84;5053583;28;45680;-68
2022/09/06 12:17:00;;;;;;;;;4.00;4.00;;;;;37.22;27.99;100966.91;5056982;27;45996;-71
2022/09/06 12:19:58;;;;;;;;;6.80;5.60;;;;;37.19;27.72;100967.25;5057302;28;45281;-67
2022/09/06 12:22:28;;;;;;;;;5.00;5.00;;;;;37.35;27.63;100961.81;5057752;28;45422;-71
2022/09/06 12:25:21;;;;;;;;;4.00;4.00;;;;;37.60;27.87;100935.44;5051315;28;47706;-69
2022/09/06 12:27:57;;;;;;;;;4.60;4.60;;;;;38.02;27.39;100952.78;5055922;28;45418;-75
2022/09/06 12:30:44;;;;;;;;;5.00;5.00;;;;;38.38;26.95;100948.63;5058767;27;45632;-71
2022/09/06 12:33:37;;;;;;;;;4.00;4.00;;;;;38.61;26.45;100942.47;5055646;28;45465;-70
2022/09/06 12:36:33;;;;;;;;;3.40;3.40;;;;;38.63;26.30;100931.31;5047901;28;47338;-71
2022/09/06 12:39:08;;;;;;;;;6.60;6.60;;;;;38.02;26.41;100926.28;5051589;28;45489;-74
2022/09/06 12:41:47;;;;;;;;;5.40;5.40;;;;;37.68;26.75;100919.09;5049981;28;45311;-69
2022/09/06 12:44:15;;;;;;;;;4.40;4.40;;;;;37.64;26.89;100911.41;5053020;28;45458;-69
2022/09/06 12:46:48;;;;;;;;;5.20;3.40;;;;;37.82;26.32;100912.06;5058204;28;45488;-72
2022/09/06 12:49:35;;;;;;;;;4.80;4.80;;;;;37.01;25.03;100905.38;5053639;28;45679;-72
2022/09/06 12:52:15;;;;;;;;;4.00;4.00;;;;;36.30;26.67;100901.94;5052657;28;45386;-73
2022/09/06 12:54:57;;;;;;;;;3.00;2.00;;;;;36.31;27.34;100891.91;5057613;28;45465;-67
2022/09/06 12:57:25;;;;;;;;;5.60;5.00;;;;;36.18;27.97;100888.72;5051341;28;47915;-67
2022/09/06 12:59:56;;;;;;;;;5.00;5.00;;;;;35.88;27.74;100869.09;5051795;28;45446;-70
2022/09/06 13:02:39;;;;;;;;;6.20;6.20;;;;;35.39;28.16;100880.38;5052223;28;45887;-68
2022/09/06 13:05:12;;;;;;;;;8.40;7.40;;;;;35.09;27.93;100864.38;5052245;28;45459;-68
2022/09/06 13:07:48;;;;;;;;;4.20;4.20;;;;;34.78;29.26;100876.41;5053750;28;45552;-68
2022/09/06 13:10:18;;;;;;;;;7.20;6.00;;;;;34.36;28.86;100886.88;5051795;28;45322;-68
2022/09/06 13:12:47;;;;;;;;;5.00;5.00;;;;;34.25;29.85;100889.78;5052108;28;45973;-69
2022/09/06 13:15:20;;;;;;;;;5.00;4.40;;;;;34.39;30.02;100883.88;5052634;28;45599;-69
2022/09/06 13:17:46;;;;;;;;;6.40;4.00;;;;;34.38;29.80;100872.16;5050873;28;47790;-72
2022/09/06 13:20:25;;;;;;;;;5.00;3.00;;;;;34.40;29.89;100866.53;5051662;28;45476;-69
2022/09/06 13:22:53;;;;;;;;;5.00;5.00;;;;;34.44;30.38;100873.41;5051279;28;45379;-71
2022/09/06 13:25:18;;;;;;;;;5.80;5.80;;;;;34.21;28.44;100865.59;5053303;28;45470;-67
2022/09/06 13:27:49;;;;;;;;;5.00;5.00;;;;;33.71;28.84;100857.66;5051974;28;46658;-73
2022/09/06 13:30:41;;;;;;;;;3.80;3.80;;;;;33.24;29.34;100851.19;5051928;28;45637;-71
2022/09/06 13:33:23;;;;;;;;;6.60;5.00;;;;;32.58;29.17;100849.88;5051730;28;46478;-67
2022/09/06 13:36:03;;;;;;;;;4.00;4.00;;;;;32.32;29.67;100815.06;5052444;28;45543;-74
2022/09/06 13:38:39;;;;;;;;;7.20;4.20;;;;;32.13;29.49;100835.78;5054349;28;45803;-74
2022/09/06 13:41:25;;;;;;;;;4.80;3.40;;;;;31.77;30.47;100825.25;5051121;28;45574;-72
2022/09/06 13:43:58;;;;;;;;;5.60;4.20;;;;;31.80;30.80;100811.47;5053394;28;45455;-72
2022/09/06 13:46:24;;;;;;;;;2.00;2.00;;;;;31.89;30.74;100810.69;5056731;28;45275;-70
2022/09/06 13:48:53;;;;;;;;;3.40;3.40;;;;;32.01;30.94;100797.94;5052886;28;45389;-74
2022/09/06 13:51:19;;;;;;;;;4.40;4.40;;;;;31.98;30.07;100798.19;5054366;28;45499;-71
2022/09/06 13:53:44;;;;;;;;;4.25;4.25;;;;;31.95;30.32;100798.47;5056331;28;45519;-68
2022/09/06 13:56:10;;;;;;;;;4.25;4.25;;;;;31.76;30.40;100777.53;5059700;28;45367;-71
2022/09/06 13:58:36;;;;;;;;;5.00;5.00;;;;;31.81;30.25;100794.22;5054852;28;45811;-81
2022/09/06 14:01:07;;;;;;;;;4.00;4.00;;;;;31.62;30.43;100794.09;5054713;28;45264;-73
2022/09/06 14:03:33;;;;;;;;;4.00;4.00;;;;;31.52;30.64;100779.66;5055014;28;45652;-74
2022/09/06 14:05:59;;;;;;;;;4.80;4.80;;;;;31.53;30.89;100793.03;5055031;27;45290;-75
2022/09/06 14:08:26;;;;;;;;;3.40;3.40;;;;;31.71;30.86;100793.31;5054119;28;45624;-72
2022/09/06 14:10:52;;;;;;;;;4.20;4.20;;;;;31.99;30.55;100789.09;5054168;28;45548;-70
2022/09/06 14:13:18;;;;;;;;;4.80;4.00;;;;;32.16;30.05;100784.06;5054049;28;45552;-69
2022/09/06 14:15:46;;;;;;;;;4.40;3.40;;;;;32.29;30.56;100784.66;5058480;28;45414;-66
2022/09/06 14:18:12;;;;;;;;;5.60;4.00;;;;;32.40;30.50;100789.13;5057185;28;45481;-70
2022/09/06 14:20:38;;;;;;;;;3.00;3.00;;;;;32.42;30.75;100782.56;5057725;28;45471;-70
2022/09/06 14:23:03;;;;;;;;;4.00;4.00;;;;;32.55;30.24;100781.50;5057687;28;45492;-67
2022/09/06 14:25:29;;;;;;;;;4.50;4.50;;;;;32.63;29.42;100777.09;5058499;28;45347;-68
2022/09/06 14:27:55;;;;;;;;;3.00;3.00;;;;;32.64;29.00;100767.97;5053037;28;45593;-67
2022/09/06 14:30:21;;;;;;;;;2.75;2.75;;;;;32.63;28.08;100777.09;5053929;28;45500;-67
2022/09/06 14:32:46;;;;;;;;;4.00;3.50;;;;;32.14;29.33;100742.69;5056627;28;45657;-66
2022/09/06 14:35:12;;;;;;;;;2.50;2.50;;;;;32.32;29.54;100773.56;5053963;28;45358;-68
2022/09/06 14:37:38;;;;;;;;;4.25;4.25;;;;;32.34;30.01;100774.25;5052048;28;47874;-68
2022/09/06 14:40:04;;;;;;;;;5.25;3.25;;;;;32.17;28.66;100767.63;5054075;28;46333;-68
2022/09/06 14:42:30;;;;;;;;;4.00;4.00;;;;;31.88;28.70;100749.38;5053502;28;45366;-69
2022/09/06 14:44:55;;;;;;;;;2.50;2.50;;;;;31.89;28.33;100752.91;5053920;28;45461;-68
2022/09/06 14:47:21;;;;;;;;;4.00;4.00;;;;;31.76;28.46;100738.75;5053429;28;45567;-71
2022/09/06 14:49:47;;;;;;;;;3.00;3.00;;;;;31.74;28.29;100736.19;5052809;28;45301;-71
2022/09/06 14:52:13;;;;;;;;;2.75;2.50;;;;;31.67;28.19;100748.53;5053626;28;45543;-68
2022/09/06 14:54:39;;;;;;;;;4.80;2.20;;;;;31.52;28.35;100734.47;5053695;28;45487;-67
2022/09/06 14:57:06;;;;;;;;;2.75;2.75;;;;;31.61;27.79;100741.81;5051513;28;46666;-67
2022/09/06 14:59:32;;;;;;;;;3.40;3.40;;;;;31.53;27.33;100736.19;5053564;28;45480;-66
2022/09/06 15:01:57;;;;;;;;;2.50;2.00;;;;;31.48;27.96;100735.72;5058292;28;45367;-67
2022/09/06 15:04:23;;;;;;;;;2.50;2.00;;;;;31.60;27.15;100739.22;5058235;28;45398;-68
2022/09/06 15:06:49;;;;;;;;;2.00;2.00;;;;;31.61;27.48;100731.00;5055120;28;45420;-69
2022/09/06 15:09:16;;;;;;;;;3.00;3.00;;;;;31.63;26.39;100729.00;5053133;28;45361;-68
2022/09/06 15:11:47;;;;;;;;;2.00;2.00;;;;;31.49;26.88;100721.22;5053714;28;45716;-66
2022/09/06 15:14:25;;;;;;;;;3.40;2.00;;;;;31.39;27.32;100731.06;5053981;28;45382;-68
2022/09/06 15:16:52;;;;;;;;;2.20;2.20;;;;;31.09;27.11;100719.19;5056526;28;47600;-66
2022/09/06 15:19:23;;;;;;;;;3.40;2.40;;;;;30.99;27.33;100707.41;5055439;28;45728;-68
2022/09/06 15:21:48;;;;;;;;;2.00;2.00;;;;;30.92;27.53;100715.22;5052481;28;45441;-67
2022/09/06 15:24:14;;;;;;;;;3.00;3.00;;;;;30.89;27.45;100712.75;5053461;28;45485;-67
2022/09/06 15:26:42;;;;;;;;;2.80;2.80;;;;;30.64;27.29;100713.91;5053104;28;46037;-68
2022/09/06 15:29:10;;;;;;;;;2.40;2.00;;;;;30.47;27.95;100712.63;5039302;28;46058;-68
2022/09/06 15:31:37;;;;;;;;;2.00;2.00;;;;;30.47;27.70;100714.44;5053387;28;45447;-70
2022/09/06 15:34:04;;;;;;;;;4.00;3.00;;;;;30.56;27.73;100702.88;5055118;27;45696;-69